EDT,Max TemperatureF,Mean TemperatureF,Min TemperatureF,Max Dew PointF,MeanDew PointF,Min DewpointF,Max Humidity, Mean Humidity, Min Humidity, Max Sea Level PressureIn, Mean Sea Level PressureIn, Min Sea Level PressureIn, Max VisibilityMiles, Mean VisibilityMiles, Min VisibilityMiles, Max Wind SpeedMPH, Mean Wind SpeedMPH, Max Gust SpeedMPH,PrecipitationIn, CloudCover, Events, WindDirDegrees
2013-4-1,28,26,23,23,18,11,91,72,53,30.09,29.96,29.77,10,8,1,25,19,37,0.00,7,Snow,312
2013-4-2,32,28,25,21,17,13,77,61,52,30.27,30.15,30.05,10,10,7,20,14,29,0.00,5,Snow,311
2013-4-3,34,30,25,21,17,12,76,60,49,30.45,30.36,30.26,10,10,10,16,11,26,0.00,1,,301
2013-4-4,47,38,28,37,26,15,100,70,42,30.27,30.05,29.95,10,8,1,25,10,37,0.00,5,Snow,226
2013-4-5,34,30,27,28,21,17,83,66,53,30.26,30.19,30.05,10,10,10,15,9,21,0.00,2,,326
2013-4-6,43,34,25,32,27,18,96,78,58,30.23,29.99,29.57,10,9,1,21,7,32,0.00,7,Rain-Snow,130
2013-4-7,47,38,29,47,34,29,100,88,58,30.07,29.78,29.44,10,8,0,21,12,26,0.00,7,Rain-Snow,267
2013-4-8,40,34,28,38,33,28,100,94,73,30.05,29.94,29.80,10,9,3,16,6,21,0.00,4,Rain,97
2013-4-9,39,36,32,38,35,32,100,99,91,30.14,30.09,30.03,10,6,2,14,4,18,0.00,8,Rain,22
2013-4-10,39,36,32,34,32,27,100,86,70,30.17,30.12,30.07,10,10,2,14,8,21,0.00,7,Rain-Snow,37
2013-4-11,35,32,30,29,23,17,89,70,48,30.12,30.01,29.83,10,8,2,24,14,36,0.00,5,Snow,84
2013-4-12,34,31,28,33,30,26,100,94,85,29.82,29.68,29.62,10,4,1,25,15,32,0.00,8,Snow,82
2013-4-13,35,33,31,33,31,27,100,94,78,29.93,29.77,29.70,10,7,1,20,6,30,0.00,8,Snow,263
2013-4-14,41,34,28,30,28,25,90,74,56,30.09,30.01,29.93,10,10,10,16,8,25,0.00,4,,340
2013-4-15,53,45,37,51,41,29,100,84,68,29.93,29.82,29.75,10,9,2,23,13,28,0.00,6,Rain,169
2013-4-16,46,40,34,36,32,30,91,73,56,30.36,30.10,29.90,10,10,10,21,10,25,0.00,2,,262
2013-4-17,48,38,28,35,31,28,100,79,52,30.42,30.32,30.12,10,10,5,14,6,20,0.00,3,Rain,96
2013-4-18,46,40,36,46,40,35,100,99,93,30.09,29.69,29.38,10,7,0,17,10,20,0.00,8,Fog-Rain,99
2013-4-19,55,41,27,55,32,19,100,82,67,29.69,29.36,29.24,10,9,2,34,16,45,0.00,8,Rain-Snow,231
2013-4-20,33,29,25,25,20,15,91,69,54,30.47,30.17,29.70,10,8,0,24,16,30,0.00,5,Snow,304
2013-4-21,44,32,20,29,21,16,96,67,36,30.61,30.51,30.37,10,10,7,14,4,16,0.00,3,,97
2013-4-22,60,48,37,35,31,28,82,59,32,30.37,30.27,30.14,10,10,10,14,8,22,0.00,1,,168
2013-4-23,56,44,32,45,36,32,100,80,52,30.14,29.97,29.88,10,8,1,18,8,28,0.00,5,Rain-Snow,210
2013-4-24,43,37,31,32,29,23,94,76,48,30.01,29.96,29.93,10,10,10,14,9,18,0.00,3,,307
2013-4-25,44,38,31,35,31,26,95,77,61,30.29,30.07,29.91,10,10,7,25,10,32,0.00,4,Rain,221
2013-4-26,63,48,32,42,33,29,92,60,33,30.35,30.27,30.17,10,10,7,18,9,26,0.00,4,Rain,185
2013-4-27,67,56,44,50,45,39,92,69,49,30.24,30.19,30.12,10,10,7,18,8,24,0.00,3,Rain,221
2013-4-28,66,52,39,45,40,36,95,66,33,30.12,29.96,29.83,10,10,2,10,4,,0.00,3,,86
2013-4-29,61,54,47,55,51,41,100,90,69,29.89,29.87,29.85,10,6,1,13,4,20,0.00,4,Rain,149
2013-4-30,74,62,51,59,56,51,100,80,55,29.90,29.85,29.79,10,8,2,24,10,32,0.00,3,Rain,151